createdAt,value
2023-04-12T00:00:56.330Z,64.11
2023-04-12T00:03:25.349Z,64.50
2023-04-12T00:05:55.129Z,64.23
2023-04-12T00:08:26.253Z,63.97
2023-04-12T00:10:54.075Z,63.81
2023-04-12T00:13:21.816Z,63.75
2023-04-12T00:15:50.967Z,63.76
2023-04-12T00:18:18.770Z,63.81
2023-04-12T00:20:46.529Z,63.53
2023-04-12T00:23:14.237Z,62.98
2023-04-12T00:25:42.019Z,62.88
2023-04-12T00:28:09.685Z,62.82
2023-04-12T00:30:37.448Z,62.53
2023-04-12T00:33:06.618Z,62.27
2023-04-12T00:35:34.636Z,62.18
2023-04-12T00:38:03.669Z,61.88
2023-04-12T00:40:31.493Z,61.73
2023-04-12T00:42:59.241Z,61.30
2023-04-12T00:45:28.096Z,61.31
2023-04-12T00:47:57.363Z,61.16
2023-04-12T00:50:26.522Z,61.12
2023-04-12T00:52:55.477Z,61.15
2023-04-12T00:55:24.061Z,61.01
2023-04-12T00:57:52.790Z,60.54
2023-04-12T01:00:20.866Z,60.48
2023-04-12T01:02:50.579Z,60.44
2023-04-12T01:05:22.780Z,60.31
2023-04-12T01:08:04.941Z,59.96
2023-04-12T01:10:42.528Z,60.04
2023-04-12T01:13:22.171Z,60.06
2023-04-12T01:15:57.585Z,59.67
2023-04-12T01:18:31.744Z,59.78
2023-04-12T01:21:05.033Z,59.74
2023-04-12T01:23:51.924Z,59.44
2023-04-12T01:26:34.404Z,59.29
2023-04-12T01:29:11.824Z,59.63
2023-04-12T01:31:43.172Z,59.33
2023-04-12T01:34:12.992Z,59.26
2023-04-12T01:36:43.498Z,59.10
2023-04-12T01:39:11.909Z,58.91
2023-04-12T01:41:41.882Z,59.19
2023-04-12T01:44:14.120Z,58.78
2023-04-12T01:46:42.577Z,58.83
2023-04-12T01:49:12.810Z,58.91
2023-04-12T01:51:50.775Z,58.83
2023-04-12T01:54:22.843Z,59.00
2023-04-12T01:56:57.664Z,58.56
2023-04-12T01:59:31.502Z,58.68
2023-04-12T02:01:59.726Z,58.84
2023-04-12T02:04:28.779Z,58.65
2023-04-12T02:06:57.110Z,58.71
2023-04-12T02:09:24.895Z,58.67
2023-04-12T02:11:52.618Z,58.75
2023-04-12T02:14:20.355Z,58.66
2023-04-12T02:16:50.604Z,58.69
2023-04-12T02:19:19.412Z,58.72
2023-04-12T02:21:47.492Z,58.97
2023-04-12T02:24:16.067Z,59.08
2023-04-12T02:26:46.189Z,59.24
2023-04-12T02:29:14.743Z,59.08
2023-04-12T02:31:42.784Z,59.25
2023-04-12T02:34:16.043Z,59.35
2023-04-12T02:36:49.138Z,59.05
2023-04-12T02:39:19.267Z,59.19
2023-04-12T02:41:49.262Z,59.28
2023-04-12T02:44:17.627Z,59.02
2023-04-12T02:46:53.507Z,59.20
2023-04-12T02:49:22.621Z,58.98
2023-04-12T02:51:50.803Z,59.22
2023-04-12T02:54:22.599Z,59.31
2023-04-12T02:56:54.046Z,59.52
2023-04-12T02:59:54.154Z,60.59
2023-04-12T03:02:26.016Z,60.76
2023-04-12T03:05:00.452Z,61.29
2023-04-12T03:07:37.279Z,62.22
2023-04-12T03:10:07.520Z,62.23
2023-04-12T03:12:40.061Z,62.94
2023-04-12T03:15:15.428Z,62.60
2023-04-12T03:17:47.221Z,63.24
2023-04-12T03:20:19.955Z,63.01
2023-04-12T03:22:57.142Z,63.29
2023-04-12T03:25:24.946Z,63.95
2023-04-12T03:27:57.972Z,63.75
2023-04-12T03:30:35.301Z,64.06
2023-04-12T03:33:03.196Z,64.66
2023-04-12T03:35:32.714Z,67.28
2023-04-12T03:38:01.237Z,66.45
2023-04-12T03:40:29.171Z,66.47
2023-04-12T03:43:01.781Z,66.88
2023-04-12T03:45:30.545Z,67.15
2023-04-12T03:48:01.332Z,67.58
2023-04-12T03:50:41.982Z,68.25
2023-04-12T03:53:10.660Z,68.57
2023-04-12T03:55:38.764Z,69.25
2023-04-12T03:58:07.079Z,68.95
2023-04-12T04:00:41.130Z,69.08
2023-04-12T04:03:10.475Z,69.12
2023-04-12T04:05:47.238Z,70.93
2023-04-12T04:08:17.106Z,71.35
2023-04-12T04:11:02.613Z,70.84
2023-04-12T04:13:37.906Z,71.78
2023-04-12T04:16:10.927Z,70.22
2023-04-12T04:18:40.670Z,70.92
2023-04-12T04:21:14.241Z,70.86
2023-04-12T04:23:44.841Z,70.80
2023-04-12T04:26:13.807Z,70.26
2023-04-12T04:28:50.252Z,69.71
2023-04-12T04:31:22.297Z,69.68
2023-04-12T04:33:51.369Z,69.68
2023-04-12T04:36:24.992Z,69.76
2023-04-12T04:38:55.566Z,69.75
2023-04-12T04:41:39.478Z,69.80
2023-04-12T04:44:10.382Z,69.31
2023-04-12T04:46:43.913Z,69.04
2023-04-12T04:49:12.006Z,68.88
2023-04-12T04:51:41.157Z,69.02
2023-04-12T04:54:11.507Z,69.30
2023-04-12T04:56:41.994Z,69.40
2023-04-12T04:59:11.537Z,68.69
2023-04-12T05:01:41.305Z,68.89
2023-04-12T05:04:09.482Z,68.79
2023-04-12T05:06:37.723Z,68.56
2023-04-12T05:09:08.853Z,68.45
2023-04-12T05:11:42.665Z,68.36
2023-04-12T05:14:12.744Z,68.04
2023-04-12T05:16:41.334Z,68.08
2023-04-12T05:19:09.118Z,68.10
2023-04-12T05:21:36.854Z,68.11
2023-04-12T05:24:05.307Z,67.65
2023-04-12T05:26:36.419Z,67.80
2023-04-12T05:29:09.062Z,67.52
2023-04-12T05:31:36.812Z,67.26
2023-04-12T05:34:08.089Z,67.58
2023-04-12T05:36:55.781Z,67.13
2023-04-12T05:39:24.296Z,67.19
2023-04-12T05:41:55.049Z,66.86
2023-04-12T05:44:22.780Z,67.04
2023-04-12T05:46:50.673Z,67.24
2023-04-12T05:49:18.427Z,67.21
2023-04-12T05:51:46.334Z,66.90
2023-04-12T05:54:22.369Z,66.86
2023-04-12T05:56:54.220Z,66.61
2023-04-12T05:59:23.687Z,66.53
2023-04-12T06:01:51.683Z,66.50
2023-04-12T06:04:21.133Z,66.42
2023-04-12T06:06:49.659Z,66.22
2023-04-12T06:09:17.402Z,65.80
2023-04-12T06:11:45.275Z,65.53
2023-04-12T06:14:13.223Z,65.38
2023-04-12T06:16:42.469Z,65.63
2023-04-12T06:19:11.200Z,65.85
2023-04-12T06:21:39.031Z,66.01
2023-04-12T06:24:08.032Z,66.67
2023-04-12T06:26:39.673Z,66.36
2023-04-12T06:29:08.444Z,65.86
2023-04-12T06:31:36.288Z,65.68
2023-04-12T06:34:05.775Z,65.64
2023-04-12T06:36:33.934Z,65.11
2023-04-12T06:39:01.653Z,64.68
2023-04-12T06:41:29.579Z,64.34
2023-04-12T06:44:01.477Z,64.01
2023-04-12T06:46:30.001Z,64.11
2023-04-12T06:48:58.020Z,64.04
2023-04-12T06:51:28.130Z,65.05
2023-04-12T06:53:56.207Z,64.91
2023-04-12T06:56:24.045Z,65.26
2023-04-12T06:58:51.815Z,65.03
2023-04-12T07:01:19.714Z,65.51
2023-04-12T07:03:47.757Z,65.90
2023-04-12T07:06:24.905Z,66.41
2023-04-12T07:08:54.909Z,66.89
2023-04-12T07:11:23.932Z,66.92
2023-04-12T07:13:52.046Z,67.31
2023-04-12T07:16:19.817Z,68.84
2023-04-12T07:18:47.664Z,67.95
2023-04-12T07:21:17.476Z,68.94
2023-04-12T07:23:46.800Z,68.64
2023-04-12T07:26:16.005Z,68.96
2023-04-12T07:28:43.884Z,68.89
2023-04-12T07:31:11.712Z,69.38
2023-04-12T07:33:42.341Z,69.63
2023-04-12T07:36:11.847Z,70.19
2023-04-12T07:38:39.696Z,69.70
2023-04-12T07:41:07.465Z,70.30
2023-04-12T07:43:36.616Z,71.38
2023-04-12T07:46:08.350Z,71.24
2023-04-12T07:48:36.205Z,71.54
2023-04-12T07:51:04.170Z,71.23
2023-04-12T07:53:31.914Z,71.94
2023-04-12T07:55:59.704Z,70.60
2023-04-12T07:58:27.440Z,71.12
2023-04-12T08:00:59.184Z,70.70
2023-04-12T08:03:28.600Z,71.07
2023-04-12T08:05:56.473Z,72.13
2023-04-12T08:08:24.299Z,71.88
2023-04-12T08:10:52.985Z,72.03
2023-04-12T08:13:21.237Z,71.96
2023-04-12T08:15:49.303Z,71.68
2023-04-12T08:18:21.096Z,71.76
2023-04-12T08:20:49.291Z,71.56
2023-04-12T08:23:17.539Z,70.31
2023-04-12T08:25:45.371Z,70.23
2023-04-12T08:28:13.149Z,69.80
2023-04-12T08:30:40.988Z,70.03
2023-04-12T08:33:08.731Z,70.57
2023-04-12T08:35:40.016Z,70.07
2023-04-12T08:38:08.125Z,70.13
2023-04-12T08:40:36.648Z,70.55
2023-04-12T08:43:08.641Z,70.90
2023-04-12T08:45:37.213Z,71.04
2023-04-12T08:48:06.786Z,71.14
2023-04-12T08:50:34.745Z,71.49
2023-04-12T08:53:03.910Z,71.16
2023-04-12T08:55:31.792Z,70.48
2023-04-12T08:58:00.315Z,71.00
2023-04-12T09:00:28.623Z,70.45
2023-04-12T09:02:56.434Z,69.72
2023-04-12T09:05:29.922Z,69.52
2023-04-12T09:07:58.022Z,69.32
2023-04-12T09:10:35.082Z,69.08
2023-04-12T09:13:03.897Z,67.90
2023-04-12T09:15:31.667Z,66.72
2023-04-12T09:18:08.196Z,66.50
2023-04-12T09:20:36.574Z,66.45
2023-04-12T09:23:18.475Z,65.61
2023-04-12T09:25:48.428Z,65.05
2023-04-12T09:28:21.309Z,64.81
2023-04-12T09:30:51.621Z,64.84
2023-04-12T09:33:21.374Z,64.20
2023-04-12T09:35:49.890Z,63.42
2023-04-12T09:38:17.936Z,62.50
2023-04-12T09:40:47.011Z,63.31
2023-04-12T09:43:15.797Z,63.25
2023-04-12T09:45:43.646Z,63.28
2023-04-12T09:48:20.303Z,61.77
2023-04-12T09:50:48.478Z,62.25
2023-04-12T09:53:18.275Z,62.43
2023-04-12T09:55:49.081Z,62.01
2023-04-12T09:58:20.069Z,61.98
2023-04-12T10:00:48.687Z,60.98
2023-04-12T10:03:16.935Z,60.72
2023-04-12T10:05:45.020Z,61.02
2023-04-12T10:08:13.278Z,60.25
2023-04-12T10:10:41.250Z,59.87
2023-04-12T10:13:13.779Z,59.82
2023-04-12T10:15:42.462Z,60.21
2023-04-12T10:18:12.665Z,59.49
2023-04-12T10:20:41.777Z,59.82
2023-04-12T10:23:12.042Z,59.39
2023-04-12T10:25:42.110Z,60.28
2023-04-12T10:28:19.809Z,61.26
2023-04-12T10:30:49.540Z,61.92
2023-04-12T10:33:19.009Z,62.68
2023-04-12T10:35:52.500Z,62.15
2023-04-12T10:38:20.949Z,62.60
2023-04-12T10:41:08.256Z,63.02
2023-04-12T10:43:37.650Z,62.62
2023-04-12T10:46:06.844Z,62.91
2023-04-12T10:48:35.865Z,62.14
2023-04-12T10:51:15.139Z,62.75
2023-04-12T10:53:43.123Z,62.81
2023-04-12T10:56:38.314Z,63.08
2023-04-12T10:59:08.315Z,62.52
2023-04-12T11:01:42.336Z,62.26
2023-04-12T11:04:16.825Z,62.07
2023-04-12T11:07:21.571Z,61.95
2023-04-12T11:09:51.045Z,62.06
2023-04-12T11:12:30.658Z,62.48
2023-04-12T11:15:03.042Z,62.65
2023-04-12T11:17:55.741Z,63.06
2023-04-12T11:20:24.129Z,62.96
2023-04-12T11:22:52.669Z,62.39
2023-04-12T11:25:21.494Z,61.98
2023-04-12T11:27:53.429Z,61.70
2023-04-12T11:30:23.648Z,62.43
2023-04-12T11:32:51.547Z,62.06
2023-04-12T11:35:24.276Z,62.58
2023-04-12T11:37:52.235Z,61.71
2023-04-12T11:40:23.313Z,61.11
2023-04-12T11:42:51.288Z,60.93
2023-04-12T11:45:22.270Z,60.65
2023-04-12T11:47:52.117Z,60.06
2023-04-12T11:50:30.465Z,59.85
2023-04-12T11:53:11.264Z,59.36
2023-04-12T11:55:39.221Z,59.33
2023-04-12T11:58:07.656Z,59.31
2023-04-12T12:00:37.115Z,59.16
2023-04-12T12:03:08.234Z,59.00
2023-04-12T12:05:39.259Z,59.00
2023-04-12T12:08:08.281Z,59.58
2023-04-12T12:10:46.879Z,60.53
2023-04-12T12:13:23.592Z,61.30
2023-04-12T12:15:54.371Z,62.49
2023-04-12T12:18:27.225Z,63.55
2023-04-12T12:20:55.816Z,64.15
2023-04-12T12:23:33.553Z,65.38
2023-04-12T12:26:17.940Z,66.14
2023-04-12T12:28:51.175Z,66.84
2023-04-12T12:31:22.368Z,66.50
2023-04-12T12:33:52.526Z,65.88
2023-04-12T12:36:21.352Z,65.63
2023-04-12T12:38:51.397Z,65.47
2023-04-12T12:41:20.904Z,64.87
2023-04-12T12:43:49.378Z,65.10
2023-04-12T12:46:18.540Z,65.59
2023-04-12T12:48:49.259Z,66.05
2023-04-12T12:51:17.934Z,66.86
2023-04-12T12:53:46.094Z,67.04
2023-04-12T12:56:15.343Z,67.60
2023-04-12T12:58:43.223Z,68.25
2023-04-12T13:01:11.288Z,68.73
2023-04-12T13:03:39.124Z,69.52
2023-04-12T13:06:10.082Z,69.81
2023-04-12T13:08:38.039Z,70.04
2023-04-12T13:11:06.307Z,70.67
2023-04-12T13:13:34.012Z,70.86
2023-04-12T13:16:01.797Z,71.59
2023-04-12T13:18:29.608Z,71.88
2023-04-12T13:20:57.493Z,71.94
2023-04-12T13:23:26.748Z,72.18
2023-04-12T13:25:54.667Z,72.74
2023-04-12T13:28:22.584Z,72.42
2023-04-12T13:30:50.491Z,72.75
2023-04-12T13:33:21.579Z,72.34
2023-04-12T13:35:50.116Z,72.39
2023-04-12T13:38:17.965Z,72.53
2023-04-12T13:40:47.053Z,72.84
2023-04-12T13:43:14.813Z,72.06
2023-04-12T13:45:42.647Z,71.86
2023-04-12T13:48:10.535Z,71.64
2023-04-12T13:50:38.380Z,70.95
2023-04-12T13:53:06.161Z,70.72
2023-04-12T13:55:33.846Z,70.57
2023-04-12T13:58:02.926Z,70.13
2023-04-12T14:00:30.766Z,69.66
2023-04-12T14:02:58.579Z,69.24
2023-04-12T14:05:26.527Z,69.05
2023-04-12T14:07:55.635Z,68.87
2023-04-12T14:10:23.447Z,68.22
2023-04-12T14:12:51.280Z,68.34
2023-04-12T14:15:20.460Z,67.53
2023-04-12T14:17:48.413Z,67.60
2023-04-12T14:20:19.216Z,67.27
2023-04-12T14:22:47.372Z,66.71
2023-04-12T14:25:15.326Z,66.58
2023-04-12T14:27:43.068Z,65.91
2023-04-12T14:30:11.100Z,65.51
2023-04-12T14:32:41.123Z,64.54
2023-04-12T14:35:09.839Z,64.11
2023-04-12T14:37:37.948Z,63.72
2023-04-12T14:40:08.350Z,63.59
2023-04-12T14:42:36.203Z,62.98
2023-04-12T14:45:05.383Z,62.88
2023-04-12T14:47:33.135Z,62.85
2023-04-12T14:50:02.315Z,62.85
2023-04-12T14:52:33.712Z,62.67
2023-04-12T14:55:02.356Z,62.77
2023-04-12T14:57:30.285Z,62.24
2023-04-12T14:59:58.543Z,62.35
2023-04-12T15:02:26.970Z,62.05
2023-04-12T15:04:54.967Z,62.67
2023-04-12T15:07:24.085Z,62.76
2023-04-12T15:09:51.893Z,61.79
2023-04-12T15:12:19.779Z,61.98
2023-04-12T15:14:47.552Z,62.45
2023-04-12T15:17:15.287Z,62.30
2023-04-12T15:19:43.137Z,61.96
2023-04-12T15:22:10.848Z,62.00
2023-04-12T15:24:40.012Z,61.78
2023-04-12T15:27:07.829Z,61.94
2023-04-12T15:29:36.192Z,62.67
2023-04-12T15:32:04.134Z,63.28
2023-04-12T15:34:33.830Z,63.25
2023-04-12T15:37:02.409Z,60.55
2023-04-12T15:39:30.429Z,59.84
2023-04-12T15:42:00.260Z,60.31
2023-04-12T15:44:31.678Z,61.02
2023-04-12T15:47:10.517Z,60.41
2023-04-12T15:49:39.224Z,59.95
2023-04-12T15:52:06.994Z,60.54
2023-04-12T15:54:35.093Z,60.14
2023-04-12T15:57:09.574Z,59.39
2023-04-12T15:59:37.993Z,59.36
2023-04-12T16:02:09.344Z,59.38
2023-04-12T16:04:37.869Z,58.75
2023-04-12T16:07:05.848Z,58.60
2023-04-12T16:09:34.774Z,58.47
2023-04-12T16:12:04.247Z,59.31
2023-04-12T16:14:32.274Z,59.24
2023-04-12T16:17:00.132Z,59.57
2023-04-12T16:19:28.243Z,59.82
2023-04-12T16:21:55.997Z,60.18
2023-04-12T16:24:23.743Z,60.42
2023-04-12T16:26:51.990Z,60.48
2023-04-12T16:29:21.077Z,61.05
2023-04-12T16:31:48.843Z,61.36
2023-04-12T16:34:16.612Z,62.82
2023-04-12T16:36:44.639Z,64.40
2023-04-12T16:39:13.211Z,66.40
2023-04-12T16:41:40.920Z,67.71
2023-04-12T16:44:08.738Z,68.33
2023-04-12T16:46:37.984Z,69.33
2023-04-12T16:49:05.898Z,69.19
2023-04-12T16:51:36.757Z,69.54
2023-04-12T16:54:05.573Z,69.98
2023-04-12T16:56:33.291Z,70.08
2023-04-12T16:59:01.189Z,70.72
2023-04-12T17:01:28.924Z,71.08
2023-04-12T17:04:00.030Z,71.74
2023-04-12T17:06:30.252Z,71.71
2023-04-12T17:08:58.122Z,72.46
2023-04-12T17:11:26.615Z,71.65
2023-04-12T17:13:54.636Z,72.88
2023-04-12T17:16:22.427Z,72.01
2023-04-12T17:18:50.198Z,73.06
2023-04-12T17:21:20.184Z,73.07
2023-04-12T17:23:49.484Z,73.03
2023-04-12T17:26:19.022Z,73.04
2023-04-12T17:28:46.838Z,72.95
2023-04-12T17:31:15.353Z,73.46
2023-04-12T17:33:43.082Z,73.44
2023-04-12T17:36:12.046Z,74.11
2023-04-12T17:38:41.599Z,73.97
2023-04-12T17:41:10.209Z,74.53
2023-04-12T17:43:38.066Z,73.96
2023-04-12T17:46:07.252Z,74.80
2023-04-12T17:48:35.787Z,75.02
2023-04-12T17:51:04.211Z,75.23
2023-04-12T17:53:32.055Z,75.31
2023-04-12T17:56:01.369Z,76.01
2023-04-12T17:58:29.895Z,76.47
2023-04-12T18:00:57.759Z,76.68
2023-04-12T18:03:26.634Z,76.63
2023-04-12T18:05:55.592Z,76.88
2023-04-12T18:08:23.971Z,76.68
2023-04-12T18:10:52.222Z,76.54
2023-04-12T18:13:21.913Z,77.31
2023-04-12T18:15:49.705Z,77.70
2023-04-12T18:18:17.553Z,78.39
2023-04-12T18:20:45.273Z,78.36
2023-04-12T18:23:13.035Z,78.47
2023-04-12T18:25:40.887Z,79.30
2023-04-12T18:28:09.853Z,80.09
2023-04-12T18:30:38.962Z,80.06
2023-04-12T18:33:08.045Z,81.13
2023-04-12T18:35:36.216Z,80.48
2023-04-12T18:38:03.955Z,80.37
2023-04-12T18:40:31.779Z,80.77
2023-04-12T18:43:02.743Z,80.92
2023-04-12T18:45:31.036Z,81.39
2023-04-12T18:48:00.475Z,82.17
2023-04-12T18:50:28.496Z,82.33
2023-04-12T18:52:56.282Z,82.98
2023-04-12T18:55:23.980Z,83.09
2023-04-12T18:57:51.681Z,83.12
2023-04-12T19:00:20.471Z,84.45
2023-04-12T19:02:48.329Z,83.90
2023-04-12T19:05:18.505Z,84.29
2023-04-12T19:07:46.301Z,84.57
2023-04-12T19:10:14.592Z,85.50
2023-04-12T19:12:42.362Z,85.73
2023-04-12T19:15:11.857Z,85.82
2023-04-12T19:17:40.118Z,86.39
2023-04-12T19:20:09.318Z,86.59
2023-04-12T19:22:38.429Z,87.53
2023-04-12T19:25:07.222Z,88.17
2023-04-12T19:27:34.924Z,88.19
2023-04-12T19:30:03.454Z,88.60
2023-04-12T19:32:31.506Z,88.12
2023-04-12T19:34:59.273Z,87.92
2023-04-12T19:37:28.382Z,88.11
2023-04-12T19:39:57.596Z,87.71
2023-04-12T19:42:25.317Z,87.90
2023-04-12T19:44:53.118Z,88.42
2023-04-12T19:47:21.719Z,88.60
2023-04-12T19:49:49.813Z,88.89
2023-04-12T19:52:20.137Z,88.46
2023-04-12T19:54:47.920Z,88.71
2023-04-12T19:57:17.817Z,88.67
2023-04-12T19:59:45.567Z,88.28
2023-04-12T20:02:13.412Z,88.79
2023-04-12T20:04:41.590Z,89.26
2023-04-12T20:07:09.482Z,89.04
2023-04-12T20:09:37.276Z,88.75
2023-04-12T20:12:06.238Z,88.62
2023-04-12T20:14:36.869Z,88.75
2023-04-12T20:17:05.853Z,89.65
2023-04-12T20:19:33.680Z,88.92
2023-04-12T20:22:03.712Z,89.15
2023-04-12T20:24:34.406Z,88.88
2023-04-12T20:27:02.357Z,88.49
2023-04-12T20:29:31.580Z,88.05
2023-04-12T20:32:00.759Z,87.45
2023-04-12T20:34:29.358Z,87.07
2023-04-12T20:36:57.961Z,86.58
2023-04-12T20:39:25.723Z,86.08
2023-04-12T20:41:54.834Z,85.48
2023-04-12T20:44:22.700Z,85.35
2023-04-12T20:46:50.917Z,85.26
2023-04-12T20:49:20.540Z,84.89
2023-04-12T20:51:48.522Z,84.66
2023-04-12T20:54:16.748Z,84.40
2023-04-12T20:56:45.111Z,83.99
2023-04-12T20:59:12.857Z,84.02
2023-04-12T21:01:40.653Z,84.73
2023-04-12T21:04:09.026Z,84.64
2023-04-12T21:06:38.154Z,84.80
2023-04-12T21:09:06.008Z,85.05
2023-04-12T21:11:33.765Z,85.17
2023-04-12T21:14:01.565Z,84.90
2023-04-12T21:16:29.376Z,85.09
2023-04-12T21:18:58.304Z,85.00
2023-04-12T21:21:27.055Z,85.47
2023-04-12T21:23:56.235Z,84.73
2023-04-12T21:26:24.282Z,84.72
2023-04-12T21:28:52.115Z,84.64
2023-04-12T21:31:20.046Z,84.54
2023-04-12T21:33:48.106Z,85.13
2023-04-12T21:36:15.820Z,85.97
2023-04-12T21:38:43.549Z,86.11
2023-04-12T21:41:12.941Z,86.08
2023-04-12T21:43:41.267Z,86.80
2023-04-12T21:46:09.169Z,86.81
2023-04-12T21:48:37.615Z,87.43
2023-04-12T21:51:05.939Z,87.48
2023-04-12T21:53:33.795Z,87.67
2023-04-12T21:56:01.719Z,88.16
2023-04-12T21:58:32.426Z,88.53
2023-04-12T22:01:00.320Z,88.60
2023-04-12T22:03:28.393Z,89.02
2023-04-12T22:06:04.113Z,89.54
2023-04-12T22:08:32.801Z,89.58
2023-04-12T22:11:01.274Z,89.79
2023-04-12T22:13:30.859Z,89.34
2023-04-12T22:16:00.625Z,90.16
2023-04-12T22:18:28.447Z,90.56
2023-04-12T22:20:57.085Z,90.39
2023-04-12T22:23:24.914Z,89.89
2023-04-12T22:25:58.189Z,89.83
2023-04-12T22:28:26.035Z,89.96
2023-04-12T22:30:57.035Z,91.30
2023-04-12T22:33:24.893Z,90.50
2023-04-12T22:35:52.592Z,91.15
2023-04-12T22:38:20.506Z,90.30
2023-04-12T22:40:48.294Z,91.13
2023-04-12T22:43:18.365Z,91.20
2023-04-12T22:45:46.980Z,90.65
2023-04-12T22:48:16.157Z,90.50
2023-04-12T22:50:45.016Z,90.60
2023-04-12T22:53:13.924Z,90.23
2023-04-12T22:55:42.142Z,90.79
2023-04-12T22:58:09.951Z,90.40
2023-04-12T23:00:39.308Z,90.07
2023-04-12T23:03:10.831Z,89.95
2023-04-12T23:05:44.826Z,89.90
2023-04-12T23:08:14.333Z,90.44
2023-04-12T23:10:43.044Z,89.89
2023-04-12T23:13:11.108Z,89.87
2023-04-12T23:15:40.429Z,90.01
2023-04-12T23:18:08.969Z,89.53
2023-04-12T23:20:36.874Z,89.80
2023-04-12T23:23:06.009Z,89.25
2023-04-12T23:25:41.758Z,89.32
2023-04-12T23:28:12.940Z,89.43
2023-04-12T23:30:43.842Z,89.27
2023-04-12T23:33:12.238Z,89.38
2023-04-12T23:35:41.559Z,89.02
2023-04-12T23:38:15.365Z,89.41
2023-04-12T23:40:44.193Z,89.11
2023-04-12T23:43:11.933Z,88.86
2023-04-12T23:45:39.800Z,88.80
2023-04-12T23:48:07.903Z,89.17
2023-04-12T23:50:35.753Z,89.25
2023-04-12T23:53:04.047Z,89.26
2023-04-12T23:55:33.153Z,89.04
2023-04-12T23:58:00.921Z,88.65
